createdAt,value
2023-02-17T00:01:30.862Z,2.60
2023-02-17T00:03:59.202Z,2.50
2023-02-17T00:06:29.270Z,2.60
2023-02-17T00:08:56.794Z,2.60
2023-02-17T00:11:24.336Z,2.50
2023-02-17T00:13:55.206Z,2.50
2023-02-17T00:16:25.938Z,2.50
2023-02-17T00:18:55.826Z,2.50
2023-02-17T00:21:25.859Z,2.50
2023-02-17T00:23:53.879Z,2.50
2023-02-17T00:26:21.795Z,2.40
2023-02-17T00:28:50.184Z,2.40
2023-02-17T00:31:22.965Z,2.40
2023-02-17T00:33:55.815Z,2.40
2023-02-17T00:36:23.882Z,2.40
2023-02-17T00:38:53.872Z,2.40
2023-02-17T00:41:22.508Z,2.30
2023-02-17T00:43:50.091Z,2.30
2023-02-17T00:46:18.738Z,2.30
2023-02-17T00:48:47.497Z,2.20
2023-02-17T00:51:15.939Z,2.30
2023-02-17T00:53:43.397Z,2.20
2023-02-17T00:56:11.118Z,2.20
2023-02-17T00:58:39.336Z,2.30
2023-02-17T01:01:06.466Z,2.30
2023-02-17T01:03:34.368Z,2.30
2023-02-17T01:06:07.787Z,2.40
2023-02-17T01:08:35.288Z,2.40
2023-02-17T01:11:02.581Z,2.30
2023-02-17T01:13:32.353Z,2.20
2023-02-17T01:15:59.931Z,2.10
2023-02-17T01:18:27.228Z,2.00
2023-02-17T01:20:54.893Z,2.00
2023-02-17T01:23:22.323Z,2.00
2023-02-17T01:25:50.866Z,2.00
2023-02-17T01:28:20.881Z,2.00
2023-02-17T01:30:49.327Z,2.00
2023-02-17T01:33:16.776Z,2.00
2023-02-17T01:35:45.564Z,2.00
2023-02-17T01:38:12.866Z,2.00
2023-02-17T01:40:47.488Z,2.10
2023-02-17T01:43:17.510Z,2.10
2023-02-17T01:46:02.237Z,2.20
2023-02-17T01:48:50.740Z,2.20
2023-02-17T01:51:23.863Z,2.20
2023-02-17T01:54:04.157Z,2.30
2023-02-17T01:56:33.100Z,2.30
2023-02-17T01:59:07.109Z,2.30
2023-02-17T02:01:35.048Z,2.30
2023-02-17T02:04:04.867Z,2.30
2023-02-17T02:06:34.906Z,2.30
2023-02-17T02:09:11.078Z,2.30
2023-02-17T02:11:38.536Z,2.30
2023-02-17T02:14:08.517Z,2.30
2023-02-17T02:16:56.904Z,2.30
2023-02-17T02:19:32.442Z,2.30
2023-02-17T02:22:15.215Z,2.40
2023-02-17T02:25:14.567Z,2.40
2023-02-17T02:28:03.074Z,2.40
2023-02-17T02:31:08.881Z,2.40
2023-02-17T02:33:41.507Z,2.40
2023-02-17T02:36:26.676Z,2.40
2023-02-17T02:39:09.131Z,2.40
2023-02-17T02:41:55.643Z,2.50
2023-02-17T02:44:23.462Z,2.50
2023-02-17T02:47:39.114Z,2.60
2023-02-17T02:50:07.125Z,2.70
2023-02-17T02:52:43.536Z,2.70
2023-02-17T02:55:39.209Z,2.70
2023-02-17T02:58:44.249Z,2.70
2023-02-17T03:01:28.926Z,2.80
2023-02-17T03:04:14.652Z,2.70
2023-02-17T03:06:49.966Z,2.70
2023-02-17T03:09:26.321Z,2.70
2023-02-17T03:11:55.711Z,2.60
2023-02-17T03:14:23.993Z,2.60
2023-02-17T03:16:52.353Z,2.40
2023-02-17T03:19:23.966Z,2.30
2023-02-17T03:21:58.375Z,2.20
2023-02-17T03:24:25.696Z,2.10
2023-02-17T03:26:52.908Z,2.10
2023-02-17T03:29:20.296Z,1.90
2023-02-17T03:31:48.037Z,1.80
2023-02-17T03:34:15.342Z,1.80
2023-02-17T03:36:42.828Z,1.70
2023-02-17T03:39:09.977Z,1.60
2023-02-17T03:41:37.184Z,1.70
2023-02-17T03:44:04.379Z,1.60
2023-02-17T03:46:31.527Z,1.70
2023-02-17T03:48:58.610Z,1.60
2023-02-17T03:51:26.032Z,1.70
2023-02-17T03:53:53.855Z,1.80
2023-02-17T03:56:21.258Z,1.80
2023-02-17T03:58:50.069Z,1.80
2023-02-17T04:01:17.220Z,1.90
2023-02-17T04:03:44.428Z,1.90
2023-02-17T04:06:12.311Z,2.00
2023-02-17T04:08:40.148Z,2.00
2023-02-17T04:11:09.244Z,2.10
2023-02-17T04:13:37.185Z,2.10
2023-02-17T04:16:05.695Z,2.10
2023-02-17T04:18:33.964Z,2.10
2023-02-17T04:21:01.675Z,2.10
2023-02-17T04:23:29.045Z,2.10
2023-02-17T04:25:56.513Z,2.10
2023-02-17T04:28:23.851Z,2.20
2023-02-17T04:30:51.646Z,2.20
2023-02-17T04:33:19.528Z,2.30
2023-02-17T04:35:48.046Z,2.30
2023-02-17T04:38:16.098Z,2.40
2023-02-17T04:40:43.840Z,2.40
2023-02-17T04:43:11.222Z,2.50
2023-02-17T04:45:38.775Z,2.50
2023-02-17T04:48:06.221Z,2.60
2023-02-17T04:50:33.347Z,2.60
2023-02-17T04:53:01.975Z,2.60
2023-02-17T04:55:30.982Z,2.60
2023-02-17T04:57:58.213Z,2.60
2023-02-17T05:00:25.668Z,2.60
2023-02-17T05:02:53.073Z,2.50
2023-02-17T05:05:21.217Z,2.50
2023-02-17T05:07:48.647Z,2.50
2023-02-17T05:10:17.396Z,2.50
2023-02-17T05:12:45.073Z,2.50
2023-02-17T05:15:12.935Z,2.60
2023-02-17T05:17:40.176Z,2.60
2023-02-17T05:20:09.154Z,2.70
2023-02-17T05:22:36.735Z,2.70
2023-02-17T05:25:04.263Z,2.70
2023-02-17T05:27:32.671Z,2.70
2023-02-17T05:30:00.102Z,2.70
2023-02-17T05:32:27.390Z,2.70
2023-02-17T05:34:54.736Z,2.70
2023-02-17T05:37:22.031Z,2.70
2023-02-17T05:39:49.306Z,2.70
2023-02-17T05:42:16.360Z,2.80
2023-02-17T05:44:43.336Z,2.80
2023-02-17T05:47:10.414Z,2.80
2023-02-17T05:49:37.978Z,2.80
2023-02-17T05:52:05.449Z,2.90
2023-02-17T05:54:32.624Z,2.90
2023-02-17T05:56:59.748Z,2.90
2023-02-17T05:59:27.263Z,2.90
2023-02-17T06:01:54.435Z,3.00
2023-02-17T06:04:21.784Z,3.00
2023-02-17T06:06:49.073Z,3.10
2023-02-17T06:09:16.344Z,3.10
2023-02-17T06:11:43.530Z,3.20
2023-02-17T06:14:10.584Z,3.20
2023-02-17T06:16:38.159Z,3.30
2023-02-17T06:19:05.411Z,3.30
2023-02-17T06:21:33.022Z,3.40
2023-02-17T06:24:00.249Z,3.40
2023-02-17T06:26:27.656Z,3.50
2023-02-17T06:28:54.953Z,3.50
2023-02-17T06:31:25.336Z,3.60
2023-02-17T06:33:52.844Z,3.60
2023-02-17T06:36:20.100Z,3.60
2023-02-17T06:38:48.732Z,3.70
2023-02-17T06:41:16.178Z,3.70
2023-02-17T06:43:43.181Z,3.80
2023-02-17T06:46:10.548Z,3.90
2023-02-17T06:48:37.730Z,4.00
2023-02-17T06:51:05.161Z,4.00
2023-02-17T06:53:32.199Z,4.00
2023-02-17T06:55:59.579Z,4.00
2023-02-17T06:58:26.916Z,4.00
2023-02-17T07:00:54.208Z,4.00
2023-02-17T07:03:21.434Z,4.10
2023-02-17T07:05:48.777Z,4.10
2023-02-17T07:08:16.125Z,4.10
2023-02-17T07:10:43.597Z,4.20
2023-02-17T07:13:11.071Z,4.20
2023-02-17T07:15:38.277Z,4.30
2023-02-17T07:18:05.693Z,4.30
2023-02-17T07:20:33.624Z,4.40
2023-02-17T07:23:01.451Z,4.30
2023-02-17T07:25:28.713Z,4.30
2023-02-17T07:27:56.105Z,4.30
2023-02-17T07:30:23.323Z,4.30
2023-02-17T07:32:50.522Z,4.20
2023-02-17T07:35:18.067Z,4.30
2023-02-17T07:37:45.273Z,4.50
2023-02-17T07:40:12.668Z,4.70
2023-02-17T07:42:40.123Z,4.80
2023-02-17T07:45:07.637Z,4.80
2023-02-17T07:47:34.846Z,4.90
2023-02-17T07:50:02.167Z,4.90
2023-02-17T07:52:29.349Z,4.90
2023-02-17T07:54:56.565Z,5.00
2023-02-17T07:57:23.926Z,5.20
2023-02-17T07:59:51.141Z,5.40
2023-02-17T08:02:18.731Z,5.60
2023-02-17T08:04:46.694Z,5.80
2023-02-17T08:07:14.189Z,5.90
2023-02-17T08:10:00.292Z,6.10
2023-02-17T08:12:46.583Z,6.30
2023-02-17T08:15:14.321Z,6.40
2023-02-17T08:17:41.723Z,6.60
2023-02-17T08:20:09.811Z,6.60
2023-02-17T08:22:37.535Z,6.60
2023-02-17T08:25:06.403Z,6.60
2023-02-17T08:27:33.932Z,6.80
2023-02-17T08:30:01.402Z,6.90
2023-02-17T08:32:28.661Z,7.30
2023-02-17T08:34:56.986Z,7.70
2023-02-17T08:37:24.704Z,8.40
2023-02-17T08:39:51.917Z,8.50
2023-02-17T08:42:19.900Z,8.30
2023-02-17T08:44:47.575Z,8.10
2023-02-17T08:47:15.426Z,8.00
2023-02-17T08:49:44.371Z,8.00
2023-02-17T08:52:11.487Z,8.20
2023-02-17T08:54:38.667Z,8.50
2023-02-17T08:57:06.106Z,8.80
2023-02-17T08:59:33.361Z,8.90
2023-02-17T09:02:00.609Z,9.00
2023-02-17T09:04:27.943Z,9.10
2023-02-17T09:06:58.746Z,9.00
2023-02-17T09:09:27.267Z,8.90
2023-02-17T09:11:57.215Z,8.90
2023-02-17T09:14:24.770Z,8.70
2023-02-17T09:16:53.356Z,8.60
2023-02-17T09:19:20.757Z,8.50
2023-02-17T09:21:48.575Z,8.50
2023-02-17T09:24:17.101Z,8.40
2023-02-17T09:26:44.481Z,8.40
2023-02-17T09:29:11.915Z,8.30
2023-02-17T09:31:39.484Z,8.30
2023-02-17T09:34:06.862Z,8.20
2023-02-17T09:36:39.520Z,8.20
2023-02-17T09:39:07.636Z,8.30
2023-02-17T09:41:40.772Z,8.40
2023-02-17T09:44:34.187Z,8.30
2023-02-17T09:47:06.578Z,8.30
2023-02-17T09:49:47.214Z,8.20
2023-02-17T09:52:18.054Z,8.30
2023-02-17T09:55:07.758Z,8.40
2023-02-17T09:57:55.078Z,8.50
2023-02-17T10:00:38.527Z,8.70
2023-02-17T10:03:18.199Z,8.80
2023-02-17T10:05:55.234Z,8.90
2023-02-17T10:08:31.916Z,8.90
2023-02-17T10:11:04.743Z,8.80
2023-02-17T10:13:37.073Z,8.90
2023-02-17T10:16:09.889Z,8.80
2023-02-17T10:18:45.785Z,8.80
2023-02-17T10:21:24.177Z,8.80
2023-02-17T10:23:52.049Z,8.70
2023-02-17T10:26:40.901Z,8.70
2023-02-17T10:29:33.572Z,8.70
2023-02-17T10:32:18.460Z,8.70
2023-02-17T10:34:53.255Z,8.80
2023-02-17T10:37:55.850Z,8.80
2023-02-17T10:40:28.510Z,8.90
2023-02-17T10:42:59.856Z,9.00
2023-02-17T10:45:41.091Z,9.00
2023-02-17T10:48:13.841Z,9.00
2023-02-17T10:50:44.202Z,9.10
2023-02-17T10:53:15.611Z,9.10
2023-02-17T10:56:02.580Z,9.20
2023-02-17T10:58:38.663Z,9.30
2023-02-17T11:01:06.494Z,9.30
2023-02-17T11:03:41.105Z,9.40
2023-02-17T11:06:22.486Z,9.30
2023-02-17T11:08:59.733Z,9.20
2023-02-17T11:11:32.093Z,9.20
2023-02-17T11:14:04.010Z,9.10
2023-02-17T11:16:36.663Z,9.10
2023-02-17T11:19:05.965Z,9.00
2023-02-17T11:21:33.460Z,9.00
2023-02-17T11:24:04.363Z,9.00
2023-02-17T11:26:36.492Z,9.00
2023-02-17T11:29:30.511Z,8.90
2023-02-17T11:31:59.432Z,8.80
2023-02-17T11:34:30.657Z,8.70
2023-02-17T11:37:00.914Z,8.80
2023-02-17T11:39:28.735Z,8.70
2023-02-17T11:41:56.285Z,8.80
2023-02-17T11:44:29.974Z,8.80
2023-02-17T11:47:12.172Z,8.80
2023-02-17T11:49:56.090Z,8.80
2023-02-17T11:52:35.068Z,8.70
2023-02-17T11:55:21.007Z,8.70
2023-02-17T11:57:54.381Z,8.70
2023-02-17T12:00:27.387Z,8.80
2023-02-17T12:03:19.500Z,8.70
2023-02-17T12:06:05.476Z,8.60
2023-02-17T12:08:50.996Z,8.60
2023-02-17T12:11:32.263Z,8.60
2023-02-17T12:14:24.302Z,8.60
2023-02-17T12:17:33.592Z,8.60
2023-02-17T12:20:28.744Z,8.60
2023-02-17T12:23:14.007Z,8.60
2023-02-17T12:26:10.912Z,8.70
2023-02-17T12:28:46.726Z,8.80
2023-02-17T12:31:31.509Z,8.90
2023-02-17T12:34:33.316Z,8.90
2023-02-17T12:37:01.791Z,8.90
2023-02-17T12:39:46.153Z,8.90
2023-02-17T12:42:18.602Z,8.90
2023-02-17T12:44:51.556Z,8.90
2023-02-17T12:47:31.298Z,8.90
2023-02-17T12:50:24.811Z,8.90
2023-02-17T12:52:57.594Z,8.90
2023-02-17T12:55:51.175Z,9.00
2023-02-17T12:58:28.020Z,8.90
2023-02-17T13:01:17.084Z,8.90
2023-02-17T13:03:44.533Z,8.90
2023-02-17T13:06:32.314Z,8.90
2023-02-17T13:09:18.576Z,8.90
2023-02-17T13:11:45.846Z,8.90
2023-02-17T13:14:28.748Z,8.90
2023-02-17T13:16:56.453Z,8.90
2023-02-17T13:19:33.251Z,8.90
2023-02-17T13:22:02.459Z,8.90
2023-02-17T13:24:35.015Z,8.90
2023-02-17T13:27:31.237Z,8.90
2023-02-17T13:30:19.698Z,8.80
2023-02-17T13:32:46.911Z,8.80
2023-02-17T13:35:14.194Z,8.80
2023-02-17T13:37:44.282Z,8.90
2023-02-17T13:40:20.368Z,8.90
2023-02-17T13:42:52.657Z,9.00
2023-02-17T13:45:54.699Z,9.00
2023-02-17T13:48:21.853Z,9.10
2023-02-17T13:50:52.435Z,9.10
2023-02-17T13:53:26.648Z,9.10
2023-02-17T13:55:56.524Z,9.10
2023-02-17T13:58:32.584Z,9.10
2023-02-17T14:01:01.357Z,9.20
2023-02-17T14:03:41.161Z,9.20
2023-02-17T14:06:14.090Z,9.20
2023-02-17T14:08:43.490Z,9.20
2023-02-17T14:11:18.377Z,9.20
2023-02-17T14:13:47.992Z,9.20
2023-02-17T14:16:33.581Z,9.20
2023-02-17T14:19:10.467Z,9.30
2023-02-17T14:21:40.183Z,9.30
2023-02-17T14:24:08.325Z,9.40
2023-02-17T14:26:55.702Z,9.40
2023-02-17T14:29:23.338Z,9.30
2023-02-17T14:31:52.367Z,9.40
2023-02-17T14:34:32.314Z,9.40
2023-02-17T14:37:25.213Z,9.40
2023-02-17T14:39:52.475Z,9.40
2023-02-17T14:42:20.027Z,9.30
2023-02-17T14:44:47.311Z,9.30
2023-02-17T14:47:14.720Z,9.20
2023-02-17T14:49:41.781Z,9.10
2023-02-17T14:52:23.589Z,9.10
2023-02-17T14:54:51.425Z,9.10
2023-02-17T14:57:24.293Z,9.00
2023-02-17T14:59:56.976Z,9.00
2023-02-17T15:02:24.793Z,8.90
2023-02-17T15:04:51.796Z,8.90
2023-02-17T15:07:19.424Z,8.80
2023-02-17T15:09:48.354Z,8.80
2023-02-17T15:12:18.852Z,8.80
2023-02-17T15:14:49.380Z,8.80
2023-02-17T15:17:16.923Z,8.70
2023-02-17T15:19:44.973Z,8.70
2023-02-17T15:22:15.399Z,8.60
2023-02-17T15:24:42.630Z,8.60
2023-02-17T15:27:15.452Z,8.50
2023-02-17T15:29:42.617Z,8.50
2023-02-17T15:32:19.039Z,8.40
2023-02-17T15:34:46.880Z,8.40
2023-02-17T15:37:13.924Z,8.40
2023-02-17T15:39:41.302Z,8.30
2023-02-17T15:42:13.715Z,8.30
2023-02-17T15:44:49.225Z,8.30
2023-02-17T15:47:19.405Z,8.20
2023-02-17T15:49:46.866Z,8.20
2023-02-17T15:52:15.053Z,8.10
2023-02-17T15:54:43.590Z,8.10
2023-02-17T15:57:24.984Z,8.10
2023-02-17T15:59:55.220Z,8.10
2023-02-17T16:02:24.983Z,8.00
2023-02-17T16:04:52.070Z,8.00
2023-02-17T16:07:19.548Z,8.00
2023-02-17T16:09:46.740Z,8.00
2023-02-17T16:12:26.662Z,8.00
2023-02-17T16:14:57.281Z,8.00
2023-02-17T16:17:28.422Z,8.00
2023-02-17T16:19:55.584Z,8.00
2023-02-17T16:22:22.854Z,8.00
2023-02-17T16:24:50.044Z,8.00
2023-02-17T16:27:17.456Z,8.00
2023-02-17T16:29:44.594Z,8.00
2023-02-17T16:32:13.030Z,8.00
2023-02-17T16:34:40.443Z,8.00
2023-02-17T16:37:15.070Z,8.00
2023-02-17T16:39:43.110Z,7.90
2023-02-17T16:42:15.427Z,8.00
2023-02-17T16:44:42.939Z,8.00
2023-02-17T16:47:20.693Z,8.00
2023-02-17T16:49:48.756Z,8.00
2023-02-17T16:52:27.283Z,8.10
2023-02-17T16:54:54.576Z,8.10
2023-02-17T16:57:22.604Z,8.10
2023-02-17T16:59:49.648Z,8.10
2023-02-17T17:02:17.342Z,8.10
2023-02-17T17:04:45.160Z,8.10
2023-02-17T17:07:16.106Z,8.10
2023-02-17T17:09:48.688Z,8.10
2023-02-17T17:12:23.456Z,8.10
2023-02-17T17:14:50.663Z,8.20
2023-02-17T17:17:18.011Z,8.10
2023-02-17T17:19:45.332Z,8.30
2023-02-17T17:22:12.545Z,8.20
2023-02-17T17:24:39.921Z,8.30
2023-02-17T17:27:07.094Z,8.40
2023-02-17T17:29:34.645Z,8.40
2023-02-17T17:32:01.845Z,8.40
2023-02-17T17:34:29.458Z,8.50
2023-02-17T17:36:56.552Z,8.50
2023-02-17T17:39:25.246Z,8.50
2023-02-17T17:41:52.332Z,8.50
2023-02-17T17:44:20.710Z,8.50
2023-02-17T17:46:47.943Z,8.50
2023-02-17T17:49:19.786Z,8.50
2023-02-17T17:51:47.142Z,8.50
2023-02-17T17:54:14.548Z,8.50
2023-02-17T17:56:43.244Z,8.60
2023-02-17T17:59:12.784Z,8.60
2023-02-17T18:01:40.094Z,8.60
2023-02-17T18:04:08.080Z,8.60
2023-02-17T18:06:41.774Z,8.70
2023-02-17T18:09:19.466Z,8.60
2023-02-17T18:11:53.880Z,8.70
2023-02-17T18:14:21.132Z,8.80
2023-02-17T18:16:49.223Z,8.80
2023-02-17T18:19:19.441Z,8.80
2023-02-17T18:21:47.872Z,8.80
2023-02-17T18:24:15.115Z,8.80
2023-02-17T18:26:42.436Z,8.90
2023-02-17T18:29:10.010Z,8.90
2023-02-17T18:31:37.657Z,8.90
2023-02-17T18:34:05.228Z,8.90
2023-02-17T18:36:32.663Z,9.00
2023-02-17T18:38:59.700Z,8.90
2023-02-17T18:41:30.140Z,9.00
2023-02-17T18:43:59.160Z,8.90
2023-02-17T18:46:27.234Z,9.00
2023-02-17T18:48:55.394Z,9.00
2023-02-17T18:51:23.981Z,9.00
2023-02-17T18:53:52.555Z,9.00
2023-02-17T18:56:22.648Z,8.90
2023-02-17T18:58:52.019Z,8.90
2023-02-17T19:01:25.635Z,8.90
2023-02-17T19:03:53.519Z,8.90
2023-02-17T19:06:23.952Z,8.90
2023-02-17T19:08:51.560Z,8.90
2023-02-17T19:11:20.296Z,8.80
2023-02-17T19:13:48.464Z,8.80
2023-02-17T19:16:19.306Z,8.80
2023-02-17T19:18:47.590Z,8.80
2023-02-17T19:21:15.609Z,8.90
2023-02-17T19:23:43.532Z,9.00
2023-02-17T19:26:13.764Z,9.10
2023-02-17T19:28:41.511Z,9.20
2023-02-17T19:31:15.695Z,9.30
2023-02-17T19:33:44.425Z,9.40
2023-02-17T19:36:20.765Z,9.60
2023-02-17T19:38:49.490Z,9.70
2023-02-17T19:41:17.779Z,9.90
2023-02-17T19:43:45.569Z,10.00
2023-02-17T19:46:14.709Z,10.10
2023-02-17T19:48:42.143Z,10.20
2023-02-17T19:51:10.534Z,10.30
2023-02-17T19:53:37.891Z,10.40
2023-02-17T19:56:14.444Z,10.40
2023-02-17T19:58:43.560Z,10.50
2023-02-17T20:01:25.543Z,10.50
2023-02-17T20:03:54.652Z,10.40
2023-02-17T20:06:25.422Z,10.30
2023-02-17T20:08:58.651Z,10.30
2023-02-17T20:11:26.557Z,10.20
2023-02-17T20:13:54.461Z,10.20
2023-02-17T20:16:21.879Z,10.10
2023-02-17T20:18:50.774Z,10.10
2023-02-17T20:21:21.609Z,10.10
2023-02-17T20:23:49.483Z,10.00
2023-02-17T20:26:21.779Z,10.00
2023-02-17T20:28:50.068Z,9.90
2023-02-17T20:31:18.488Z,9.90
2023-02-17T20:33:46.473Z,10.00
2023-02-17T20:36:13.587Z,10.00
2023-02-17T20:38:41.666Z,10.00
2023-02-17T20:41:10.069Z,9.90
2023-02-17T20:43:38.670Z,10.00
2023-02-17T20:46:06.727Z,10.10
2023-02-17T20:48:34.534Z,10.00
2023-02-17T20:51:04.037Z,10.00
2023-02-17T20:53:31.246Z,10.10
2023-02-17T20:55:58.498Z,10.10
2023-02-17T20:58:25.857Z,10.10
2023-02-17T21:00:52.988Z,10.10
2023-02-17T21:03:20.219Z,10.20
2023-02-17T21:05:47.961Z,10.20
2023-02-17T21:08:15.053Z,10.20
2023-02-17T21:10:42.144Z,10.30
2023-02-17T21:13:09.497Z,10.30
2023-02-17T21:15:36.951Z,10.40
2023-02-17T21:18:05.754Z,10.40
2023-02-17T21:20:33.463Z,10.40
2023-02-17T21:23:01.150Z,10.50
2023-02-17T21:25:28.224Z,10.50
2023-02-17T21:27:55.486Z,10.60
2023-02-17T21:30:22.722Z,10.60
2023-02-17T21:32:50.099Z,10.70
2023-02-17T21:35:17.223Z,10.70
2023-02-17T21:37:44.418Z,10.70
2023-02-17T21:40:11.903Z,10.70
2023-02-17T21:42:57.910Z,10.70
2023-02-17T21:45:25.594Z,10.80
2023-02-17T21:47:52.903Z,10.80
2023-02-17T21:50:21.574Z,10.80
2023-02-17T21:52:48.697Z,10.80
2023-02-17T21:55:15.832Z,10.80
2023-02-17T21:57:43.200Z,10.90
2023-02-17T22:00:11.516Z,10.90
2023-02-17T22:02:43.494Z,11.00
2023-02-17T22:05:11.711Z,11.00
2023-02-17T22:07:38.832Z,11.10
2023-02-17T22:10:07.125Z,11.00
2023-02-17T22:12:37.621Z,11.00
2023-02-17T22:15:05.862Z,11.00
2023-02-17T22:17:35.034Z,11.00
2023-02-17T22:20:03.637Z,11.00
2023-02-17T22:22:31.100Z,11.00
2023-02-17T22:24:58.482Z,10.90
2023-02-17T22:27:25.828Z,10.90
2023-02-17T22:29:52.986Z,11.00
2023-02-17T22:32:20.120Z,11.00
2023-02-17T22:34:47.317Z,11.10
2023-02-17T22:37:14.649Z,11.10
2023-02-17T22:39:41.759Z,11.10
2023-02-17T22:42:08.714Z,11.20
2023-02-17T22:44:35.904Z,11.20
2023-02-17T22:47:02.876Z,11.20
2023-02-17T22:49:29.944Z,11.20
2023-02-17T22:51:56.986Z,11.20
2023-02-17T22:54:24.356Z,11.20
2023-02-17T22:56:51.355Z,11.20
2023-02-17T22:59:18.323Z,11.30
2023-02-17T23:01:46.415Z,11.30
2023-02-17T23:04:14.565Z,11.30
2023-02-17T23:06:42.470Z,11.30
2023-02-17T23:09:15.156Z,11.40
2023-02-17T23:11:57.562Z,11.40
2023-02-17T23:14:27.695Z,11.40
2023-02-17T23:16:59.204Z,11.50
2023-02-17T23:19:26.625Z,11.50
2023-02-17T23:21:56.524Z,11.60
2023-02-17T23:24:26.331Z,11.60
2023-02-17T23:26:55.277Z,11.60
2023-02-17T23:29:22.914Z,11.60
2023-02-17T23:31:50.130Z,11.60
2023-02-17T23:34:17.530Z,11.50
2023-02-17T23:36:46.162Z,11.40
2023-02-17T23:39:14.295Z,11.30
2023-02-17T23:41:42.368Z,11.20
2023-02-17T23:44:11.196Z,11.10
2023-02-17T23:46:39.404Z,11.00
2023-02-17T23:49:06.492Z,10.80
2023-02-17T23:51:33.834Z,10.70
2023-02-17T23:54:00.899Z,10.50
2023-02-17T23:56:33.784Z,10.50
2023-02-17T23:59:01.956Z,10.40
